logo dgac
Miércoles 22 de Mayo del 2019
Buscar por aerodromo o helipuerto
Ingrese nombre de aeródromo, localidad o designador OACI:
METAR del 22-05-2019 a las 10:00 UTC
METAR SCSE 221000Z 14008KT CAVOK 06/M01 Q1017
Viento: dirección 140 grados, velocidad 8 nudos
Visibilidad: 10 km o más,
    sin nubes bajo los 5.000 pies o bajo del MSA (Mínimo de Seguridad del Aeródromo),
    sin cumulonimbus, y sin fenómenos de tiempo significativo en el aeródromo o alrededores
Temperatura: 6 °C
Rocío: -1 °C
Humedad_relativa: 61%
Presión: 1017 hPa
METAR del 22-05-2019 a las 09:00 UTC
METAR SCSE 220900Z 11007KT CAVOK 07/00 Q1018
Viento: dirección 110 grados, velocidad 7 nudos
Visibilidad: 10 km o más,
    sin nubes bajo los 5.000 pies o bajo del MSA (Mínimo de Seguridad del Aeródromo),
    sin cumulonimbus, y sin fenómenos de tiempo significativo en el aeródromo o alrededores
Temperatura: 7 °C
Rocío: 0 °C
Humedad_relativa: 61%
Presión: 1018 hPa
METAR del 22-05-2019 a las 08:00 UTC
METAR SCSE 220800Z 14004KT CAVOK 07/00 Q1018
Viento: dirección 140 grados, velocidad 4 nudos
Visibilidad: 10 km o más,
    sin nubes bajo los 5.000 pies o bajo del MSA (Mínimo de Seguridad del Aeródromo),
    sin cumulonimbus, y sin fenómenos de tiempo significativo en el aeródromo o alrededores
Temperatura: 7 °C
Rocío: 0 °C
Humedad_relativa: 61%
Presión: 1018 hPa
METAR del 22-05-2019 a las 07:00 UTC
METAR SCSE 220700Z 11008KT CAVOK 07/01 Q1019
Viento: dirección 110 grados, velocidad 8 nudos
Visibilidad: 10 km o más,
    sin nubes bajo los 5.000 pies o bajo del MSA (Mínimo de Seguridad del Aeródromo),
    sin cumulonimbus, y sin fenómenos de tiempo significativo en el aeródromo o alrededores
Temperatura: 7 °C
Rocío: 1 °C
Humedad_relativa: 66%
Presión: 1019 hPa
METAR del 22-05-2019 a las 06:00 UTC
METAR SCSE 220600Z 10007KT CAVOK 07/01 Q1019
Viento: dirección 100 grados, velocidad 7 nudos
Visibilidad: 10 km o más,
    sin nubes bajo los 5.000 pies o bajo del MSA (Mínimo de Seguridad del Aeródromo),
    sin cumulonimbus, y sin fenómenos de tiempo significativo en el aeródromo o alrededores
Temperatura: 7 °C
Rocío: 1 °C
Humedad_relativa: 66%
Presión: 1019 hPa
METAR del 22-05-2019 a las 06:00 UTC
METAR SCSE 220600Z 10007KT CAVOK 07/01 Q1019
Viento: dirección 100 grados, velocidad 7 nudos
Visibilidad: 10 km o más,
    sin nubes bajo los 5.000 pies o bajo del MSA (Mínimo de Seguridad del Aeródromo),
    sin cumulonimbus, y sin fenómenos de tiempo significativo en el aeródromo o alrededores
Temperatura: 7 °C
Rocío: 1 °C
Humedad_relativa: 66%
Presión: 1019 hPa
METAR del 22-05-2019 a las 05:00 UTC
METAR SCSE 220500Z 11006KT CAVOK 07/01 Q1020
Viento: dirección 110 grados, velocidad 6 nudos
Visibilidad: 10 km o más,
    sin nubes bajo los 5.000 pies o bajo del MSA (Mínimo de Seguridad del Aeródromo),
    sin cumulonimbus, y sin fenómenos de tiempo significativo en el aeródromo o alrededores
Temperatura: 7 °C
Rocío: 1 °C
Humedad_relativa: 66%
Presión: 1020 hPa
METAR del 22-05-2019 a las 05:00 UTC
METAR SCSE 220500Z 11006KT CAVOK 07/01 Q1020
Viento: dirección 110 grados, velocidad 6 nudos
Visibilidad: 10 km o más,
    sin nubes bajo los 5.000 pies o bajo del MSA (Mínimo de Seguridad del Aeródromo),
    sin cumulonimbus, y sin fenómenos de tiempo significativo en el aeródromo o alrededores
Temperatura: 7 °C
Rocío: 1 °C
Humedad_relativa: 66%
Presión: 1020 hPa
METAR del 22-05-2019 a las 04:00 UTC
METAR SCSE 220400Z 08007KT CAVOK 08/02 Q1020
Viento: dirección 080 grados, velocidad 7 nudos
Visibilidad: 10 km o más,
    sin nubes bajo los 5.000 pies o bajo del MSA (Mínimo de Seguridad del Aeródromo),
    sin cumulonimbus, y sin fenómenos de tiempo significativo en el aeródromo o alrededores
Temperatura: 8 °C
Rocío: 2 °C
Humedad_relativa: 66%
Presión: 1020 hPa
METAR del 22-05-2019 a las 04:00 UTC
METAR SCSE 220400Z 08007KT CAVOK 08/02 Q1020
Viento: dirección 080 grados, velocidad 7 nudos
Visibilidad: 10 km o más,
    sin nubes bajo los 5.000 pies o bajo del MSA (Mínimo de Seguridad del Aeródromo),
    sin cumulonimbus, y sin fenómenos de tiempo significativo en el aeródromo o alrededores
Temperatura: 8 °C
Rocío: 2 °C
Humedad_relativa: 66%
Presión: 1020 hPa